Taylor, NE (68879)

5:54 AM CDT on July 25, 2016 (GMT -0500)
Sharp | | Change Station

Elev 2070 ft 41.62 °N, 98.95 °W | Updated 1 hour ago

Scattered Clouds
Scattered Clouds
61 °F
Feels Like 61 °F
N
0
Wind Variable Wind from North

Today
High -- | Low -- °F
--% Chance of Precip.
Yesterday
High -- | Low -- °F
Precip. -- in
Pressure 30.09 in
Visibility 10.0 miles
Clouds Scattered Clouds 8500 ft
Dew Point 58 °F
Humidity 90%
Rainfall 0.00 in
Snow Depth Not available.
6:25 AM 9:02 PM
Waning Gibbous, 67% visible
METAR KODX 250953Z AUTO 00000KT 10SM SCT085 16/14 A3011 RMK AO2 SLP187 T01610144 $
Pressure 30.09 in
Visibility 10.0 miles
Clouds Scattered Clouds 8500 ft
Dew Point 58 °F
Humidity 90%
Rainfall 0.00 in
Snow Depth Not available.
6:25 AM 9:02 PM
Waning Gibbous, 67% visible
METAR KODX 250953Z AUTO 00000KT 10SM SCT085 16/14 A3011 RMK AO2 SLP187 T01610144 $

10-Day Weather Forecast

Almanac

Astronomy

Jul. 25, 2016 Rise Set
Actual Time
Civil Twilight
Nautical Twilight
Astronomical Twilight
Moon
Length of Visible Light
Length of Day
Tomorrow will be .
, % of the Moon is Illuminated

Today's Extremes

State Highs State Lows

Community

WunderPhotos

Upload Photos

1,927,291 photos uploaded!

WunderBlog® & News

Nearby

Air Quality

  Air Quality AQ Index Pollutant
Not available.

Snow Depth

Station Depth Elevation

Earthquake Activity

City Distance Mag. Time & Date
Minimum magnitude displayed is 2.5.

Coastal Water Temperatures

Place Temperature

Stations

Nearby Weather Stations

Station Location Temp. Windchill Dew Point Humidity Wind Precip. Elev Updated Type
                   

Watches & Warnings

There are currently no watches in effect.